createdAt,value
2023-02-02T00:01:28.007Z,3.47
2023-02-02T00:03:56.758Z,2.75
2023-02-02T00:06:27.038Z,3.20
2023-02-02T00:08:56.906Z,3.67
2023-02-02T00:11:27.344Z,3.58
2023-02-02T00:13:55.693Z,3.20
2023-02-02T00:16:53.712Z,3.65
2023-02-02T00:19:23.565Z,4.18
2023-02-02T00:21:51.808Z,3.40
2023-02-02T00:24:20.498Z,3.50
2023-02-02T00:26:52.069Z,3.00
2023-02-02T00:29:24.331Z,2.83
2023-02-02T00:31:52.874Z,2.35
2023-02-02T00:34:21.837Z,3.08
2023-02-02T00:36:50.969Z,2.25
2023-02-02T00:39:21.701Z,3.05
2023-02-02T00:41:52.343Z,2.42
2023-02-02T00:44:37.868Z,2.80
2023-02-02T00:47:06.498Z,3.35
2023-02-02T00:49:34.576Z,3.20
2023-02-02T00:52:03.151Z,2.70
2023-02-02T00:54:31.395Z,2.50
2023-02-02T00:57:00.839Z,2.30
2023-02-02T00:59:29.035Z,2.58
2023-02-02T01:01:57.232Z,2.63
2023-02-02T01:04:25.593Z,3.00
2023-02-02T01:06:53.831Z,2.88
2023-02-02T01:09:22.266Z,2.95
2023-02-02T01:11:50.331Z,2.72
2023-02-02T01:14:20.003Z,3.25
2023-02-02T01:16:48.306Z,2.90
2023-02-02T01:19:17.291Z,3.03
2023-02-02T01:21:46.190Z,3.92
2023-02-02T01:24:14.438Z,3.95
2023-02-02T01:26:42.616Z,4.63
2023-02-02T01:29:10.675Z,3.70
2023-02-02T01:31:40.672Z,4.00
2023-02-02T01:34:08.907Z,4.32
2023-02-02T01:36:37.585Z,4.45
2023-02-02T01:39:05.941Z,3.42
2023-02-02T01:41:33.959Z,5.55
2023-02-02T01:44:04.963Z,4.53
2023-02-02T01:46:34.458Z,5.00
2023-02-02T01:49:08.833Z,5.20
2023-02-02T01:51:43.461Z,3.47
2023-02-02T01:54:17.071Z,4.45
2023-02-02T01:56:50.504Z,4.15
2023-02-02T01:59:19.921Z,4.22
2023-02-02T02:01:49.747Z,2.60
2023-02-02T02:04:20.057Z,2.90
2023-02-02T02:06:51.180Z,2.83
2023-02-02T02:09:19.407Z,3.55
2023-02-02T02:11:47.371Z,4.05
2023-02-02T02:14:34.607Z,4.10
2023-02-02T02:17:19.301Z,2.75
2023-02-02T02:20:39.052Z,3.58
2023-02-02T02:24:05.046Z,4.10
2023-02-02T02:27:04.497Z,3.95
2023-02-02T02:29:53.130Z,3.40
2023-02-02T02:32:33.796Z,3.25
2023-02-02T02:35:08.940Z,4.32
2023-02-02T02:37:44.398Z,3.85
2023-02-02T02:40:21.207Z,4.55
2023-02-02T02:42:53.701Z,4.13
2023-02-02T02:45:25.029Z,4.22
2023-02-02T02:47:55.542Z,3.60
2023-02-02T02:50:24.436Z,3.33
2023-02-02T02:53:00.785Z,3.78
2023-02-02T02:55:37.196Z,4.30
2023-02-02T02:58:14.858Z,3.05
2023-02-02T03:01:00.218Z,3.50
2023-02-02T03:03:48.370Z,3.25
2023-02-02T03:06:22.827Z,2.90
2023-02-02T03:08:56.564Z,3.05
2023-02-02T03:11:24.538Z,3.35
2023-02-02T03:13:52.967Z,3.00
2023-02-02T03:16:21.045Z,3.15
2023-02-02T03:18:50.524Z,2.45
2023-02-02T03:21:18.599Z,4.03
2023-02-02T03:23:46.598Z,4.15
2023-02-02T03:26:15.286Z,3.33
2023-02-02T03:28:43.775Z,3.63
2023-02-02T03:31:11.903Z,3.75
2023-02-02T03:33:40.416Z,3.08
2023-02-02T03:36:10.662Z,3.22
2023-02-02T03:38:38.809Z,3.58
2023-02-02T03:41:07.082Z,3.65
2023-02-02T03:43:35.131Z,4.10
2023-02-02T03:46:04.648Z,3.38
2023-02-02T03:48:35.705Z,3.45
2023-02-02T03:51:07.291Z,4.30
2023-02-02T03:53:37.100Z,4.28
2023-02-02T03:56:05.611Z,3.97
2023-02-02T03:58:33.732Z,4.38
2023-02-02T04:01:04.804Z,3.60
2023-02-02T04:03:33.207Z,3.65
2023-02-02T04:06:01.281Z,3.55
2023-02-02T04:08:30.264Z,3.15
2023-02-02T04:10:59.754Z,3.72
2023-02-02T04:13:27.898Z,3.85
2023-02-02T04:16:00.247Z,3.75
2023-02-02T04:18:29.309Z,4.10
2023-02-02T04:20:59.386Z,3.67
2023-02-02T04:23:28.994Z,3.80
2023-02-02T04:25:57.651Z,3.88
2023-02-02T04:28:28.009Z,4.00
2023-02-02T04:30:57.109Z,4.03
2023-02-02T04:33:27.289Z,4.07
2023-02-02T04:35:55.294Z,3.63
2023-02-02T04:38:23.917Z,3.88
2023-02-02T04:40:51.973Z,3.33
2023-02-02T04:43:20.203Z,3.72
2023-02-02T04:45:50.409Z,3.75
2023-02-02T04:48:18.521Z,4.07
2023-02-02T04:50:46.575Z,3.53
2023-02-02T04:53:15.017Z,4.72
2023-02-02T04:55:43.141Z,4.15
2023-02-02T04:58:11.497Z,3.25
2023-02-02T05:00:39.467Z,5.30
2023-02-02T05:03:09.031Z,3.65
2023-02-02T05:05:37.021Z,3.95
2023-02-02T05:08:06.655Z,3.45
2023-02-02T05:10:34.983Z,3.53
2023-02-02T05:13:03.257Z,4.10
2023-02-02T05:15:31.693Z,4.40
2023-02-02T05:17:59.827Z,5.28
2023-02-02T05:20:29.330Z,4.15
2023-02-02T05:22:57.631Z,4.30
2023-02-02T05:25:25.866Z,4.28
2023-02-02T05:27:54.287Z,3.65
2023-02-02T05:30:22.555Z,5.85
2023-02-02T05:32:50.801Z,4.63
2023-02-02T05:35:18.984Z,4.30
2023-02-02T05:37:48.430Z,6.00
2023-02-02T05:40:16.734Z,4.45
2023-02-02T05:42:49.044Z,4.05
2023-02-02T05:45:17.171Z,4.00
2023-02-02T05:47:45.321Z,3.17
2023-02-02T05:50:13.720Z,3.70
2023-02-02T05:52:44.165Z,3.47
2023-02-02T05:55:13.903Z,3.13
2023-02-02T05:57:41.987Z,5.03
2023-02-02T06:00:12.249Z,4.30
2023-02-02T06:02:40.589Z,3.88
2023-02-02T06:05:09.322Z,4.47
2023-02-02T06:07:37.552Z,4.15
2023-02-02T06:10:06.615Z,3.75
2023-02-02T06:12:36.188Z,3.75
2023-02-02T06:15:04.453Z,3.78
2023-02-02T06:17:32.562Z,4.30
2023-02-02T06:20:00.764Z,3.90
2023-02-02T06:22:30.352Z,4.10
2023-02-02T06:24:59.024Z,4.22
2023-02-02T06:27:27.009Z,4.50
2023-02-02T06:29:56.582Z,3.42
2023-02-02T06:32:24.655Z,4.20
2023-02-02T06:34:52.876Z,3.97
2023-02-02T06:37:20.937Z,4.20
2023-02-02T06:39:49.048Z,4.63
2023-02-02T06:42:21.703Z,4.30
2023-02-02T06:44:50.214Z,4.70
2023-02-02T06:47:20.315Z,3.60
2023-02-02T06:49:48.714Z,3.83
2023-02-02T06:52:16.739Z,3.90
2023-02-02T06:54:44.991Z,3.30
2023-02-02T06:57:13.135Z,4.40
2023-02-02T06:59:41.685Z,4.07
2023-02-02T07:02:12.438Z,3.45
2023-02-02T07:04:41.767Z,4.50
2023-02-02T07:07:09.918Z,3.75
2023-02-02T07:09:38.065Z,4.72
2023-02-02T07:12:06.489Z,3.38
2023-02-02T07:14:34.634Z,4.75
2023-02-02T07:17:02.940Z,4.28
2023-02-02T07:19:31.095Z,4.07
2023-02-02T07:22:00.617Z,3.67
2023-02-02T07:24:29.012Z,3.50
2023-02-02T07:26:58.208Z,2.95
2023-02-02T07:29:26.667Z,3.15
2023-02-02T07:31:54.970Z,3.25
2023-02-02T07:34:23.089Z,4.25
2023-02-02T07:36:51.399Z,3.53
2023-02-02T07:39:20.864Z,3.53
2023-02-02T07:41:49.228Z,3.22
2023-02-02T07:44:30.396Z,3.97
2023-02-02T07:46:58.840Z,4.97
2023-02-02T07:49:27.033Z,3.90
2023-02-02T07:51:55.169Z,3.85
2023-02-02T07:54:24.725Z,3.10
2023-02-02T07:56:52.918Z,3.55
2023-02-02T07:59:20.924Z,3.80
2023-02-02T08:01:49.344Z,3.50
2023-02-02T08:04:18.737Z,2.90
2023-02-02T08:06:46.907Z,2.92
2023-02-02T08:09:15.200Z,4.25
2023-02-02T08:11:44.605Z,3.72
2023-02-02T08:14:14.174Z,2.70
2023-02-02T08:16:42.487Z,3.30
2023-02-02T08:19:11.780Z,2.60
2023-02-02T08:21:39.942Z,3.35
2023-02-02T08:24:08.273Z,3.55
2023-02-02T08:26:36.314Z,4.00
2023-02-02T08:29:07.579Z,2.90
2023-02-02T08:31:38.282Z,3.30
2023-02-02T08:34:06.545Z,3.47
2023-02-02T08:36:35.631Z,3.58
2023-02-02T08:39:06.257Z,3.58
2023-02-02T08:41:34.719Z,3.20
2023-02-02T08:44:02.844Z,3.45
2023-02-02T08:46:32.560Z,3.63
2023-02-02T08:49:00.667Z,4.07
2023-02-02T08:51:28.760Z,5.28
2023-02-02T08:53:57.073Z,5.05
2023-02-02T08:56:25.252Z,5.25
2023-02-02T08:58:56.327Z,4.90
2023-02-02T09:01:26.408Z,6.45
2023-02-02T09:03:57.104Z,5.10
2023-02-02T09:06:32.514Z,5.07
2023-02-02T09:09:01.165Z,5.00
2023-02-02T09:11:29.374Z,4.90
2023-02-02T09:13:59.588Z,5.70
2023-02-02T09:16:28.573Z,4.85
2023-02-02T09:18:58.214Z,5.10
2023-02-02T09:21:27.092Z,5.30
2023-02-02T09:23:55.618Z,5.55
2023-02-02T09:26:25.649Z,5.05
2023-02-02T09:28:56.361Z,5.50
2023-02-02T09:31:25.528Z,5.68
2023-02-02T09:33:53.722Z,4.55
2023-02-02T09:36:27.025Z,5.40
2023-02-02T09:38:55.273Z,5.15
2023-02-02T09:42:13.896Z,5.38
2023-02-02T09:45:03.016Z,5.20
2023-02-02T09:47:46.830Z,5.07
2023-02-02T09:50:19.547Z,3.90
2023-02-02T09:52:56.009Z,4.30
2023-02-02T09:55:31.499Z,4.90
2023-02-02T09:58:06.691Z,4.30
2023-02-02T10:00:38.714Z,5.50
2023-02-02T10:03:15.939Z,4.50
2023-02-02T10:05:50.125Z,3.70
2023-02-02T10:08:34.684Z,4.68
2023-02-02T10:11:14.668Z,4.93
2023-02-02T10:13:45.741Z,4.57
2023-02-02T10:16:18.295Z,4.18
2023-02-02T10:18:51.455Z,4.35
2023-02-02T10:21:30.082Z,4.95
2023-02-02T10:24:02.233Z,3.85
2023-02-02T10:26:37.942Z,3.65
2023-02-02T10:29:18.944Z,5.82
2023-02-02T10:31:58.309Z,4.13
2023-02-02T10:34:33.066Z,4.28
2023-02-02T10:37:12.280Z,4.95
2023-02-02T10:39:58.181Z,3.65
2023-02-02T10:42:45.474Z,3.92
2023-02-02T10:45:18.817Z,4.13
2023-02-02T10:47:47.132Z,4.22
2023-02-02T10:50:18.273Z,3.78
2023-02-02T10:52:49.736Z,3.53
2023-02-02T10:55:30.060Z,4.20
2023-02-02T10:58:09.665Z,3.97
2023-02-02T11:00:45.547Z,4.00
2023-02-02T11:03:16.217Z,4.20
2023-02-02T11:06:02.792Z,5.25
2023-02-02T11:08:35.018Z,5.00
2023-02-02T11:11:13.676Z,4.70
2023-02-02T11:13:48.068Z,4.45
2023-02-02T11:16:24.649Z,4.28
2023-02-02T11:18:54.000Z,3.70
2023-02-02T11:21:25.613Z,3.78
2023-02-02T11:23:56.365Z,3.35
2023-02-02T11:26:27.217Z,3.88
2023-02-02T11:28:59.210Z,3.90
2023-02-02T11:31:36.168Z,4.47
2023-02-02T11:34:11.807Z,3.42
2023-02-02T11:36:39.757Z,3.40
2023-02-02T11:39:20.576Z,2.80
2023-02-02T11:41:50.286Z,3.15
2023-02-02T11:44:26.089Z,2.70
2023-02-02T11:46:57.094Z,3.25
2023-02-02T11:49:25.999Z,3.03
2023-02-02T11:51:59.406Z,2.92
2023-02-02T11:54:30.195Z,3.35
2023-02-02T11:57:02.394Z,3.55
2023-02-02T11:59:33.994Z,3.17
2023-02-02T12:02:31.461Z,3.70
2023-02-02T12:05:37.668Z,3.10
2023-02-02T12:08:07.005Z,3.55
2023-02-02T12:10:43.054Z,3.17
2023-02-02T12:13:28.051Z,3.17
2023-02-02T12:16:09.038Z,3.85
2023-02-02T12:18:47.142Z,3.17
2023-02-02T12:21:22.894Z,3.00
2023-02-02T12:23:59.304Z,3.58
2023-02-02T12:26:30.326Z,3.95
2023-02-02T12:29:25.911Z,4.32
2023-02-02T12:32:20.310Z,3.63
2023-02-02T12:34:59.162Z,3.85
2023-02-02T12:37:40.744Z,4.68
2023-02-02T12:40:26.023Z,4.72
2023-02-02T12:43:07.960Z,4.30
2023-02-02T12:46:01.202Z,4.68
2023-02-02T12:48:40.810Z,4.05
2023-02-02T12:51:23.273Z,3.42
2023-02-02T12:54:34.717Z,4.15
2023-02-02T12:57:21.950Z,5.05
2023-02-02T13:00:09.250Z,4.22
2023-02-02T13:02:53.381Z,3.40
2023-02-02T13:05:40.198Z,4.80
2023-02-02T13:08:11.672Z,4.10
2023-02-02T13:10:43.402Z,4.78
2023-02-02T13:13:15.995Z,3.75
2023-02-02T13:15:47.691Z,4.68
2023-02-02T13:18:21.516Z,4.03
2023-02-02T13:20:53.726Z,4.13
2023-02-02T13:23:28.409Z,3.55
2023-02-02T13:26:01.552Z,4.35
2023-02-02T13:28:38.065Z,4.13
2023-02-02T13:31:13.021Z,4.22
2023-02-02T13:33:44.798Z,4.22
2023-02-02T13:36:26.170Z,3.95
2023-02-02T13:38:57.677Z,3.55
2023-02-02T13:41:26.890Z,3.55
2023-02-02T13:44:02.505Z,3.60
2023-02-02T13:46:38.385Z,3.30
2023-02-02T13:49:13.655Z,4.45
2023-02-02T13:52:03.780Z,3.15
2023-02-02T13:55:17.160Z,3.85
2023-02-02T13:58:15.063Z,3.17
2023-02-02T14:00:47.910Z,3.83
2023-02-02T14:03:31.211Z,3.40
2023-02-02T14:06:11.358Z,3.50
2023-02-02T14:08:46.436Z,3.28
2023-02-02T14:11:22.210Z,3.83
2023-02-02T14:14:10.498Z,3.30
2023-02-02T14:16:50.998Z,2.95
2023-02-02T14:19:53.088Z,3.38
2023-02-02T14:22:41.378Z,2.90
2023-02-02T14:25:47.875Z,3.72
2023-02-02T14:28:47.796Z,3.35
2023-02-02T14:31:29.867Z,3.30
2023-02-02T14:34:26.906Z,3.42
2023-02-02T14:37:14.752Z,3.13
2023-02-02T14:39:54.506Z,2.67
2023-02-02T14:42:57.858Z,2.85
2023-02-02T14:45:31.063Z,3.20
2023-02-02T14:48:02.782Z,3.00
2023-02-02T14:50:46.511Z,2.35
2023-02-02T14:53:22.197Z,2.90
2023-02-02T14:56:04.153Z,2.80
2023-02-02T14:58:35.280Z,3.45
2023-02-02T15:01:13.681Z,3.22
2023-02-02T15:03:52.992Z,2.70
2023-02-02T15:06:31.054Z,3.25
2023-02-02T15:09:41.722Z,3.40
2023-02-02T15:12:31.072Z,3.20
2023-02-02T15:15:11.786Z,3.58
2023-02-02T15:17:51.841Z,3.03
2023-02-02T15:20:25.663Z,2.55
2023-02-02T15:22:58.720Z,2.65
2023-02-02T15:25:32.070Z,2.30
2023-02-02T15:28:10.189Z,2.60
2023-02-02T15:30:42.417Z,2.47
2023-02-02T15:33:28.011Z,2.30
2023-02-02T15:35:59.900Z,2.70
2023-02-02T15:38:35.424Z,2.40
2023-02-02T15:41:09.071Z,3.20
2023-02-02T15:43:39.757Z,2.63
2023-02-02T15:46:12.051Z,3.00
2023-02-02T15:48:40.845Z,2.10
2023-02-02T15:51:17.553Z,2.58
2023-02-02T15:53:51.670Z,3.60
2023-02-02T15:56:29.307Z,2.47
2023-02-02T15:59:00.598Z,2.70
2023-02-02T16:01:34.140Z,2.08
2023-02-02T16:04:15.463Z,2.80
2023-02-02T16:06:44.318Z,1.70
2023-02-02T16:09:24.202Z,1.90
2023-02-02T16:11:53.152Z,1.90
2023-02-02T16:14:23.907Z,2.60
2023-02-02T16:16:52.147Z,1.85
2023-02-02T16:19:22.683Z,2.15
2023-02-02T16:21:55.049Z,2.70
2023-02-02T16:24:26.352Z,2.67
2023-02-02T16:26:58.589Z,1.83
2023-02-02T16:29:29.858Z,1.80
2023-02-02T16:31:58.794Z,2.05
2023-02-02T16:34:46.737Z,1.77
2023-02-02T16:37:17.313Z,1.92
2023-02-02T16:39:45.796Z,2.40
2023-02-02T16:42:25.279Z,2.65
2023-02-02T16:44:55.727Z,1.70
2023-02-02T16:47:40.007Z,1.95
2023-02-02T16:50:29.757Z,1.88
2023-02-02T16:53:03.830Z,1.52
2023-02-02T16:55:49.345Z,2.38
2023-02-02T16:58:22.925Z,1.70
2023-02-02T17:01:13.557Z,1.63
2023-02-02T17:03:51.254Z,1.80
2023-02-02T17:06:38.346Z,2.33
2023-02-02T17:09:18.175Z,2.55
2023-02-02T17:12:02.658Z,2.92
2023-02-02T17:14:34.432Z,2.40
2023-02-02T17:17:07.546Z,2.50
2023-02-02T17:19:35.676Z,2.50
2023-02-02T17:22:06.484Z,2.58
2023-02-02T17:24:35.597Z,2.78
2023-02-02T17:27:04.493Z,2.78
2023-02-02T17:29:33.130Z,2.80
2023-02-02T17:32:01.488Z,3.25
2023-02-02T17:34:31.788Z,2.78
2023-02-02T17:37:00.433Z,2.10
2023-02-02T17:39:28.556Z,2.60
2023-02-02T17:41:56.589Z,2.55
2023-02-02T17:44:24.594Z,2.35
2023-02-02T17:46:52.630Z,3.10
2023-02-02T17:49:21.515Z,2.40
2023-02-02T17:51:51.317Z,2.65
2023-02-02T17:54:19.450Z,2.97
2023-02-02T17:56:47.945Z,2.30
2023-02-02T17:59:16.245Z,2.20
2023-02-02T18:01:45.634Z,2.42
2023-02-02T18:04:16.220Z,2.70
2023-02-02T18:06:44.615Z,2.28
2023-02-02T18:09:16.887Z,2.50
2023-02-02T18:11:45.558Z,2.40
2023-02-02T18:14:13.782Z,3.05
2023-02-02T18:16:41.837Z,2.15
2023-02-02T18:19:10.443Z,2.83
2023-02-02T18:21:38.529Z,2.55
2023-02-02T18:24:06.910Z,2.58
2023-02-02T18:26:36.349Z,2.60
2023-02-02T18:29:05.470Z,1.90
2023-02-02T18:31:33.586Z,2.20
2023-02-02T18:34:01.857Z,2.35
2023-02-02T18:36:30.165Z,2.78
2023-02-02T18:38:58.260Z,2.20
2023-02-02T18:41:26.553Z,2.35
2023-02-02T18:43:56.594Z,3.00
2023-02-02T18:46:26.131Z,2.53
2023-02-02T18:48:54.183Z,2.80
2023-02-02T18:51:22.374Z,2.60
2023-02-02T18:53:50.602Z,2.00
2023-02-02T18:56:18.805Z,2.72
2023-02-02T18:58:46.819Z,2.47
2023-02-02T19:01:19.177Z,2.30
2023-02-02T19:03:49.767Z,2.20
2023-02-02T19:06:36.174Z,2.30
2023-02-02T19:09:04.929Z,2.15
2023-02-02T19:11:39.052Z,2.58
2023-02-02T19:14:14.248Z,2.38
2023-02-02T19:16:45.103Z,3.10
2023-02-02T19:19:22.994Z,2.45
2023-02-02T19:21:54.682Z,3.22
2023-02-02T19:24:22.679Z,2.65
2023-02-02T19:26:51.581Z,2.95
2023-02-02T19:29:22.462Z,2.05
2023-02-02T19:32:01.208Z,2.50
2023-02-02T19:34:30.787Z,2.80
2023-02-02T19:36:59.272Z,2.00
2023-02-02T19:39:31.998Z,2.35
2023-02-02T19:42:02.086Z,2.65
2023-02-02T19:44:34.144Z,2.65
2023-02-02T19:47:07.157Z,2.40
2023-02-02T19:49:37.386Z,2.70
2023-02-02T19:52:16.743Z,2.90
2023-02-02T19:54:45.264Z,2.60
2023-02-02T19:57:22.119Z,2.33
2023-02-02T19:59:52.474Z,2.50
2023-02-02T20:02:33.686Z,2.03
2023-02-02T20:05:07.409Z,2.05
2023-02-02T20:07:35.823Z,2.40
2023-02-02T20:10:16.848Z,2.70
2023-02-02T20:12:44.964Z,2.17
2023-02-02T20:15:26.733Z,3.13
2023-02-02T20:17:58.415Z,2.45
2023-02-02T20:20:28.447Z,2.55
2023-02-02T20:22:58.158Z,1.58
2023-02-02T20:25:26.724Z,2.25
2023-02-02T20:27:55.072Z,1.48
2023-02-02T20:30:26.611Z,2.53
2023-02-02T20:32:58.082Z,1.85
2023-02-02T20:35:35.041Z,1.90
2023-02-02T20:38:03.802Z,2.47
2023-02-02T20:40:32.057Z,2.00
2023-02-02T20:43:00.260Z,2.00
2023-02-02T20:45:28.395Z,1.90
2023-02-02T20:47:57.905Z,1.83
2023-02-02T20:50:26.379Z,1.98
2023-02-02T20:52:55.817Z,2.30
2023-02-02T20:55:23.961Z,3.15
2023-02-02T20:57:53.048Z,2.13
2023-02-02T21:00:26.991Z,2.95
2023-02-02T21:02:56.201Z,2.70
2023-02-02T21:05:25.640Z,2.00
2023-02-02T21:07:55.555Z,2.50
2023-02-02T21:10:23.883Z,3.20
2023-02-02T21:12:52.170Z,2.75
2023-02-02T21:15:20.265Z,2.40
2023-02-02T21:17:48.207Z,2.80
2023-02-02T21:20:16.725Z,3.03
2023-02-02T21:22:46.427Z,2.80
2023-02-02T21:25:14.460Z,2.65
2023-02-02T21:27:42.631Z,2.50
2023-02-02T21:30:13.209Z,2.50
2023-02-02T21:32:41.330Z,3.00
2023-02-02T21:35:10.308Z,2.40
2023-02-02T21:37:38.527Z,3.00
2023-02-02T21:40:14.520Z,4.53
2023-02-02T21:42:48.473Z,2.85
2023-02-02T21:45:33.304Z,2.88
2023-02-02T21:48:06.401Z,3.80
2023-02-02T21:50:37.815Z,2.95
2023-02-02T21:53:19.070Z,2.75
2023-02-02T21:55:53.660Z,2.33
2023-02-02T21:58:25.544Z,3.58
2023-02-02T22:00:54.828Z,3.00
2023-02-02T22:03:30.908Z,2.75
2023-02-02T22:06:06.535Z,2.55
2023-02-02T22:08:37.370Z,2.33
2023-02-02T22:11:18.571Z,2.50
2023-02-02T22:13:46.592Z,2.33
2023-02-02T22:16:18.617Z,2.45
2023-02-02T22:18:46.825Z,2.80
2023-02-02T22:21:18.364Z,1.95
2023-02-02T22:23:47.387Z,1.95
2023-02-02T22:26:33.024Z,1.90
2023-02-02T22:29:01.326Z,1.73
2023-02-02T22:31:29.431Z,1.60
2023-02-02T22:33:57.885Z,1.98
2023-02-02T22:36:25.972Z,1.80
2023-02-02T22:38:54.050Z,1.70
2023-02-02T22:41:22.190Z,1.90
2023-02-02T22:43:51.597Z,1.58
2023-02-02T22:46:19.809Z,2.40
2023-02-02T22:48:47.951Z,2.10
2023-02-02T22:51:16.265Z,1.95
2023-02-02T22:53:44.226Z,1.95
2023-02-02T22:56:12.393Z,1.73
2023-02-02T22:58:40.730Z,2.10
2023-02-02T23:01:11.752Z,2.30
2023-02-02T23:03:40.027Z,2.00
2023-02-02T23:06:08.251Z,2.13
2023-02-02T23:08:36.490Z,1.48
2023-02-02T23:11:04.785Z,2.50
2023-02-02T23:13:32.875Z,2.33
2023-02-02T23:16:01.056Z,1.65
2023-02-02T23:18:30.540Z,1.60
2023-02-02T23:20:58.836Z,1.80
2023-02-02T23:23:26.940Z,1.58
2023-02-02T23:25:55.040Z,1.50
2023-02-02T23:28:23.205Z,1.88
2023-02-02T23:30:54.785Z,1.90
2023-02-02T23:33:23.145Z,2.00
2023-02-02T23:35:52.683Z,1.30
2023-02-02T23:38:20.803Z,1.38
2023-02-02T23:40:48.889Z,1.88
2023-02-02T23:43:16.971Z,1.70
2023-02-02T23:45:45.249Z,1.70
2023-02-02T23:48:13.842Z,1.70
2023-02-02T23:50:41.990Z,1.90
2023-02-02T23:53:12.486Z,1.67
2023-02-02T23:55:41.758Z,2.33
2023-02-02T23:58:11.140Z,2.92
